Time;durP1;ratioP1;P1;durP2;ratioP2;P2;SDS_P1;SDS_P2;PMS_P1;PMS_P2;Temp;Humidity;BMP_temperature;BMP_pressure;BME280_temperature;BME280_humidity;BME280_pressure;Samples;Min_cycle;Max_cycle;Signal;HPM_P1;HPM_P2
2021/10/30 00:00:14;;;;;;;;;;;;;;;21.38;55.01;101050.84;2083430;28;1064;-54
2021/10/30 00:01:14;;;;;;;;;;;;;;;21.36;55.36;101054.53;2083538;28;855;-55
2021/10/30 00:02:14;;;;;;;;;;;;;;;21.36;54.82;101058.09;2083518;28;787;-54
2021/10/30 00:03:14;;;;;;;;;;;;;;;21.40;55.22;101048.09;2083294;28;890;-54
2021/10/30 00:04:15;;;;;;;;;;;;;;;21.33;55.66;101051.00;2083491;28;736;-54
2021/10/30 00:05:15;;;;;;;;;;;;;;;21.37;55.46;101051.75;2083430;28;1014;-54
2021/10/30 00:06:16;;;;;;;;;;;;;;;21.39;55.61;101044.50;2083002;28;2009;-54
2021/10/30 00:07:17;;;;;;;;;;;;;;;21.36;55.75;101054.53;2083562;28;1272;-54
2021/10/30 00:08:17;;;;;;;;;;;;;;;21.38;54.41;101053.53;2083132;28;862;-54
2021/10/30 00:09:18;;;;;;;;;;;;;;;21.37;55.14;101049.06;2083252;28;791;-54
2021/10/30 00:10:18;;;;;;;;;;;;;;;21.35;56.31;101050.94;2083404;28;895;-54
2021/10/30 00:11:18;;;;;;;;;;;;;;;21.38;54.51;101050.84;2083284;28;839;-54
2021/10/30 00:12:18;;;;;;;;;;;;;;;21.37;55.50;101048.22;2083250;28;981;-54
2021/10/30 00:13:18;;;;;;;;;;;;;;;21.32;55.57;101048.34;2083480;28;1069;-54
2021/10/30 00:14:19;;;;;;;;;;;;;;;21.34;55.27;101041.09;2083269;28;701;-54
2021/10/30 00:15:19;;;;;;;;;;;;;;;21.35;55.24;101042.84;2083406;28;968;-55
2021/10/30 00:16:19;;;;;;;;;;;;;;;21.35;55.55;101044.69;2083380;28;942;-54
2021/10/30 00:17:19;;;;;;;;;;;;;;;21.36;54.68;101047.31;2083416;28;896;-54
2021/10/30 00:18:19;;;;;;;;;;;;;;;21.35;54.98;101039.28;2083439;28;982;-54
2021/10/30 00:19:20;;;;;;;;;;;;;;;21.35;55.56;101045.53;2083395;28;998;-54
2021/10/30 00:20:20;;;;;;;;;;;;;;;21.37;55.34;101046.38;2083134;28;784;-54
2021/10/30 00:21:20;;;;;;;;;;;;;;;21.35;55.06;101039.28;2083362;28;860;-54
2021/10/30 00:22:20;;;;;;;;;;;;;;;21.33;55.38;101051.00;2083361;28;788;-54
2021/10/30 00:23:20;;;;;;;;;;;;;;;21.30;56.15;101039.44;2083317;28;1056;-54
2021/10/30 00:24:21;;;;;;;;;;;;;;;21.37;55.80;101041.00;2083390;28;1037;-54
2021/10/30 00:25:21;;;;;;;;;;;;;;;21.38;55.34;101037.38;2083112;28;792;-54
2021/10/30 00:26:21;;;;;;;;;;;;;;;21.37;55.49;101032.91;2083144;28;1977;-55
2021/10/30 00:27:21;;;;;;;;;;;;;;;21.36;55.41;101044.63;2083305;28;978;-54
2021/10/30 00:28:21;;;;;;;;;;;;;;;21.37;55.33;101041.00;2083376;28;1048;-54
2021/10/30 00:29:21;;;;;;;;;;;;;;;21.34;54.99;101038.41;2083389;28;776;-54
2021/10/30 00:30:22;;;;;;;;;;;;;;;21.33;55.27;101032.13;2083374;28;847;-54
2021/10/30 00:31:22;;;;;;;;;;;;;;;21.35;54.75;101034.78;2083314;28;899;-54
2021/10/30 00:32:22;;;;;;;;;;;;;;;21.38;55.02;101031.09;2083232;28;780;-54
2021/10/30 00:33:22;;;;;;;;;;;;;;;21.32;55.28;101035.78;2083229;28;930;-55
2021/10/30 00:34:23;;;;;;;;;;;;;;;21.33;55.86;101037.53;2083306;28;811;-54
2021/10/30 00:35:23;;;;;;;;;;;;;;;21.36;55.26;101035.66;2083318;28;799;-54
2021/10/30 00:36:23;;;;;;;;;;;;;;;21.33;54.76;101036.63;2083340;28;776;-54
2021/10/30 00:37:23;;;;;;;;;;;;;;;21.33;54.76;101028.56;2083242;28;1194;-54
2021/10/30 00:38:24;;;;;;;;;;;;;;;21.35;54.90;101039.28;2082965;28;935;-54
2021/10/30 00:39:24;;;;;;;;;;;;;;;21.33;54.90;101036.63;2083162;28;803;-54
2021/10/30 00:40:24;;;;;;;;;;;;;;;21.32;55.47;101035.78;2083211;28;899;-54
2021/10/30 00:41:24;;;;;;;;;;;;;;;21.36;55.57;101036.53;2083274;28;868;-54
2021/10/30 00:42:24;;;;;;;;;;;;;;;21.33;55.72;101037.53;2083232;28;1066;-54
2021/10/30 00:43:25;;;;;;;;;;;;;;;21.35;54.99;101033.91;2083151;28;1038;-54
2021/10/30 00:44:25;;;;;;;;;;;;;;;21.31;55.37;101036.69;2082996;28;764;-54
2021/10/30 00:45:25;;;;;;;;;;;;;;;21.31;55.03;101039.41;2083209;28;954;-54
2021/10/30 00:46:25;;;;;;;;;;;;;;;21.39;55.08;101040.94;2083096;28;1886;-54
2021/10/30 00:47:25;;;;;;;;;;;;;;;21.31;54.96;101043.88;2082977;28;1419;-54
2021/10/30 00:48:26;;;;;;;;;;;;;;;21.31;55.52;101039.41;2083158;28;985;-54
2021/10/30 00:49:28;;;;;;;;;;;;;;;21.35;55.07;101040.16;2083192;28;827;-54
2021/10/30 00:50:28;;;;;;;;;;;;;;;21.30;55.21;101047.50;2083178;28;791;-55
2021/10/30 00:51:30;;;;;;;;;;;;;;;21.33;55.17;101040.22;2083214;28;1037;-54
2021/10/30 00:52:30;;;;;;;;;;;;;;;21.36;54.79;101043.75;2083125;28;792;-54
2021/10/30 00:53:32;;;;;;;;;;;;;;;21.35;55.49;101042.00;2083200;28;808;-54
2021/10/30 00:54:36;;;;;;;;;;;;;;;21.36;54.76;101038.38;2083115;28;1052;-54
2021/10/30 00:55:37;;;;;;;;;;;;;;;21.36;55.17;101033.84;2083240;28;1263;-54
2021/10/30 00:56:37;;;;;;;;;;;;;;;21.35;54.89;101036.59;2082939;28;1066;-54
2021/10/30 00:57:39;;;;;;;;;;;;;;;21.36;54.71;101033.84;2083063;28;939;-54
2021/10/30 00:58:40;;;;;;;;;;;;;;;21.32;55.09;101033.06;2074331;28;911;-54
2021/10/30 00:59:41;;;;;;;;;;;;;;;21.35;55.69;101032.06;2074461;28;997;-54
2021/10/30 01:00:41;;;;;;;;;;;;;;;21.36;54.73;101036.53;2083133;28;1001;-54
2021/10/30 01:01:43;;;;;;;;;;;;;;;21.35;55.35;101039.28;2083167;28;773;-54
2021/10/30 01:02:43;;;;;;;;;;;;;;;21.38;55.13;101031.09;2083070;28;906;-54
2021/10/30 01:03:44;;;;;;;;;;;;;;;21.32;55.00;101035.78;2083193;28;854;-54
2021/10/30 01:04:45;;;;;;;;;;;;;;;21.34;54.73;101038.41;2083100;28;882;-54
2021/10/30 01:05:45;;;;;;;;;;;;;;;21.33;54.64;101031.25;2083159;28;1025;-54
2021/10/30 01:06:46;;;;;;;;;;;;;;;21.29;55.31;101030.47;2083047;28;1911;-54
2021/10/30 01:07:47;;;;;;;;;;;;;;;21.32;55.00;101026.78;2082790;28;954;-54
2021/10/30 01:08:47;;;;;;;;;;;;;;;21.31;54.88;101025.94;2083066;28;1049;-54
2021/10/30 01:09:48;;;;;;;;;;;;;;;21.30;55.31;101023.25;2083135;28;851;-54
2021/10/30 01:10:48;;;;;;;;;;;;;;;21.35;54.20;101018.59;2082971;28;1181;-54
2021/10/30 01:11:51;;;;;;;;;;;;;;;21.32;54.63;101021.41;2083179;28;906;-54
2021/10/30 01:12:52;;;;;;;;;;;;;;;21.33;54.50;101015.06;2083114;28;840;-54
2021/10/30 01:13:53;;;;;;;;;;;;;;;21.30;55.17;101017.88;2083113;28;891;-54
2021/10/30 01:14:53;;;;;;;;;;;;;;;21.32;54.78;101021.41;2083130;28;918;-54
2021/10/30 01:15:54;;;;;;;;;;;;;;;21.30;54.98;101016.06;2083080;28;1238;-54
2021/10/30 01:16:58;;;;;;;;;;;;;;;21.29;55.39;101013.41;2083069;28;989;-54
2021/10/30 01:17:58;;;;;;;;;;;;;;;21.28;55.23;101012.56;2082809;28;795;-54
2021/10/30 01:19:00;;;;;;;;;;;;;;;21.34;55.45;101014.16;2083114;28;867;-54
2021/10/30 01:20:00;;;;;;;;;;;;;;;21.33;54.99;101015.97;2083053;28;898;-54
2021/10/30 01:21:01;;;;;;;;;;;;;;;21.30;55.38;101009.78;2083951;28;835;-54
2021/10/30 01:22:01;;;;;;;;;;;;;;;21.37;54.25;101015.88;2084761;28;1101;-54
2021/10/30 01:23:02;;;;;;;;;;;;;;;21.33;54.58;101012.38;2084755;28;894;-55
2021/10/30 01:24:03;;;;;;;;;;;;;;;21.34;54.64;101014.16;2084527;28;1056;-54
2021/10/30 01:25:03;;;;;;;;;;;;;;;21.35;54.81;101013.22;2084702;28;1068;-54
2021/10/30 01:26:04;;;;;;;;;;;;;;;21.34;55.28;101008.75;2084522;28;848;-54
2021/10/30 01:27:04;;;;;;;;;;;;;;;21.34;54.84;101000.66;2084647;28;1898;-55
2021/10/30 01:28:04;;;;;;;;;;;;;;;21.34;55.27;100997.97;2084668;28;1048;-54
2021/10/30 01:29:05;;;;;;;;;;;;;;;21.33;55.06;100997.13;2084682;28;834;-54
2021/10/30 01:30:05;;;;;;;;;;;;;;;21.33;55.41;101004.31;2084649;28;830;-54
2021/10/30 01:31:05;;;;;;;;;;;;;;;21.33;54.85;101009.69;2084501;28;1033;-54
2021/10/30 01:32:06;;;;;;;;;;;;;;;21.31;54.91;101006.16;2084433;28;910;-54
2021/10/30 01:33:06;;;;;;;;;;;;;;;21.29;54.77;101005.34;2084701;28;1029;-54
2021/10/30 01:34:07;;;;;;;;;;;;;;;21.32;55.21;101002.53;2084560;28;792;-54
2021/10/30 01:35:07;;;;;;;;;;;;;;;21.32;55.23;101007.94;2084547;28;772;-54
2021/10/30 01:36:08;;;;;;;;;;;;;;;21.31;54.69;101004.38;2084615;28;859;-54
2021/10/30 01:37:08;;;;;;;;;;;;;;;21.30;54.92;100994.53;2084364;28;1064;-54
2021/10/30 01:38:10;;;;;;;;;;;;;;;21.28;54.68;100998.19;2084595;28;1526;-54
2021/10/30 01:39:10;;;;;;;;;;;;;;;21.30;55.08;101001.72;2084641;28;851;-54
2021/10/30 01:40:10;;;;;;;;;;;;;;;21.31;55.27;100996.28;2084304;28;803;-54
2021/10/30 01:41:10;;;;;;;;;;;;;;;21.28;55.23;100996.38;2084534;28;978;-54
2021/10/30 01:42:11;;;;;;;;;;;;;;;21.31;54.43;101004.38;2084554;28;978;-54
2021/10/30 01:43:11;;;;;;;;;;;;;;;21.31;55.63;100996.28;2084615;28;997;-54
2021/10/30 01:44:11;;;;;;;;;;;;;;;21.30;55.36;100994.53;2084551;28;906;-54
2021/10/30 01:45:12;;;;;;;;;;;;;;;21.33;54.96;100998.91;2084545;28;971;-54
2021/10/30 01:46:12;;;;;;;;;;;;;;;21.30;54.57;100999.91;2084375;28;875;-54
2021/10/30 01:47:12;;;;;;;;;;;;;;;21.35;54.56;100996.19;2084494;28;1898;-54
2021/10/30 01:48:12;;;;;;;;;;;;;;;21.30;54.99;100999.00;2084440;28;824;-54
2021/10/30 01:49:12;;;;;;;;;;;;;;;21.31;54.88;100988.19;2084369;28;1352;-54
2021/10/30 01:50:14;;;;;;;;;;;;;;;21.30;55.15;100993.63;2084531;28;915;-55
2021/10/30 01:51:15;;;;;;;;;;;;;;;21.31;55.46;100996.28;2084393;28;835;-54
2021/10/30 01:52:15;;;;;;;;;;;;;;;21.28;55.40;100996.38;2084282;28;796;-54
2021/10/30 01:53:15;;;;;;;;;;;;;;;21.26;54.82;100989.28;2084428;28;1052;-54
2021/10/30 01:54:15;;;;;;;;;;;;;;;21.31;55.58;100998.06;2084499;28;906;-54
2021/10/30 01:55:16;;;;;;;;;;;;;;;21.32;54.99;100992.66;2084497;28;998;-54
2021/10/30 01:56:17;;;;;;;;;;;;;;;21.27;55.01;100983.84;2084500;28;966;-54
2021/10/30 01:57:17;;;;;;;;;;;;;;;21.30;54.64;100983.75;2084280;28;1082;-54
2021/10/30 01:58:17;;;;;;;;;;;;;;;21.29;54.70;100986.47;2084415;28;891;-54
2021/10/30 01:59:17;;;;;;;;;;;;;;;21.31;55.45;100980.13;2084450;28;978;-54
2021/10/30 02:00:18;;;;;;;;;;;;;;;21.33;54.90;100982.75;2084418;28;764;-54
2021/10/30 02:01:18;;;;;;;;;;;;;;;21.32;54.29;100986.38;2084464;28;1305;-54
2021/10/30 02:02:18;;;;;;;;;;;;;;;21.31;54.80;100981.91;2084022;28;918;-54
2021/10/30 02:03:20;;;;;;;;;;;;;;;21.28;55.46;100987.41;2084453;28;843;-54
2021/10/30 02:04:20;;;;;;;;;;;;;;;21.27;55.42;100982.94;2084437;28;913;-54
2021/10/30 02:05:21;;;;;;;;;;;;;;;21.27;54.87;100977.56;2084441;28;1048;-55
2021/10/30 02:06:21;;;;;;;;;;;;;;;21.33;55.00;100974.66;2084268;28;1910;-54
2021/10/30 02:07:21;;;;;;;;;;;;;;;21.28;55.31;100976.63;2084344;28;1037;-54
2021/10/30 02:08:21;;;;;;;;;;;;;;;21.27;54.97;100975.75;2084337;28;774;-54
2021/10/30 02:09:21;;;;;;;;;;;;;;;21.27;55.35;100970.38;2084418;28;796;-54
2021/10/30 02:10:21;;;;;;;;;;;;;;;21.25;55.63;100974.94;2084011;28;970;-54
2021/10/30 02:11:22;;;;;;;;;;;;;;;21.26;56.25;100975.81;2084370;28;694;-54
2021/10/30 02:12:22;;;;;;;;;;;;;;;21.29;54.80;100976.59;2084317;28;764;-54
2021/10/30 02:13:23;;;;;;;;;;;;;;;21.31;54.64;100984.59;2084393;28;1049;-54
2021/10/30 02:14:23;;;;;;;;;;;;;;;21.29;55.02;100983.78;2084280;28;859;-54
2021/10/30 02:15:23;;;;;;;;;;;;;;;21.29;55.46;100984.69;2084322;28;891;-54
2021/10/30 02:16:23;;;;;;;;;;;;;;;21.30;54.96;100990.94;2084270;28;926;-54
2021/10/30 02:17:24;;;;;;;;;;;;;;;21.26;55.48;100998.25;2084339;28;1006;-54
2021/10/30 02:18:24;;;;;;;;;;;;;;;21.28;55.13;100996.38;2084165;28;772;-54
2021/10/30 02:19:24;;;;;;;;;;;;;;;21.33;54.79;100998.91;2084322;28;931;-54
2021/10/30 02:20:24;;;;;;;;;;;;;;;21.27;55.04;100988.34;2084287;28;792;-54
2021/10/30 02:21:24;;;;;;;;;;;;;;;21.27;55.31;100994.63;2084313;28;1187;-54
2021/10/30 02:22:25;;;;;;;;;;;;;;;21.25;55.15;100993.78;2084304;28;1046;-54
2021/10/30 02:23:25;;;;;;;;;;;;;;;21.26;55.25;100987.47;2084035;28;1001;-54
2021/10/30 02:24:25;;;;;;;;;;;;;;;21.25;54.71;100987.50;2084273;28;1131;-54
2021/10/30 02:25:25;;;;;;;;;;;;;;;21.26;54.76;100991.97;2084310;28;851;-54
2021/10/30 02:26:25;;;;;;;;;;;;;;;21.27;54.90;100985.66;2083823;28;1890;-54
2021/10/30 02:27:25;;;;;;;;;;;;;;;21.26;54.76;100986.56;2084252;28;1207;-54
2021/10/30 02:28:26;;;;;;;;;;;;;;;21.26;54.90;100986.56;2084206;28;891;-54
2021/10/30 02:29:26;;;;;;;;;;;;;;;21.25;54.65;100980.31;2084298;28;854;-54
2021/10/30 02:30:27;;;;;;;;;;;;;;;21.24;55.89;100980.34;2084203;28;1404;-54
2021/10/30 02:31:27;;;;;;;;;;;;;;;21.25;55.46;100984.81;2083811;28;1049;-54
2021/10/30 02:32:27;;;;;;;;;;;;;;;21.25;55.62;100985.72;2084127;28;761;-54
2021/10/30 02:33:27;;;;;;;;;;;;;;;21.24;55.05;100983.94;2084137;28;962;-54
2021/10/30 02:34:28;;;;;;;;;;;;;;;21.25;55.41;100988.41;2083869;28;859;-54
2021/10/30 02:35:28;;;;;;;;;;;;;;;21.24;55.95;100985.75;2084214;28;863;-54
2021/10/30 02:36:28;;;;;;;;;;;;;;;21.28;54.58;100996.38;2084154;28;1284;-54
2021/10/30 02:37:29;;;;;;;;;;;;;;;21.29;54.40;100991.88;2084153;28;1194;-54
2021/10/30 02:38:29;;;;;;;;;;;;;;;21.31;55.37;100990.00;2084233;28;1021;-54
2021/10/30 02:39:29;;;;;;;;;;;;;;;21.27;55.16;100991.94;2084063;28;815;-54
2021/10/30 02:40:29;;;;;;;;;;;;;;;21.25;55.06;100996.50;2084105;28;753;-54
2021/10/30 02:41:30;;;;;;;;;;;;;;;21.29;54.82;100998.16;2084111;28;1277;-54
2021/10/30 02:42:30;;;;;;;;;;;;;;;21.25;55.86;100995.59;2083827;28;843;-54
2021/10/30 02:43:30;;;;;;;;;;;;;;;21.26;54.92;101000.03;2084166;28;994;-54
2021/10/30 02:44:31;;;;;;;;;;;;;;;21.25;54.82;101009.97;2084095;28;1030;-54
2021/10/30 02:45:31;;;;;;;;;;;;;;;21.28;55.05;101001.78;2084117;28;803;-54
2021/10/30 02:46:31;;;;;;;;;;;;;;;21.27;55.73;101000.00;2084059;28;1951;-54
2021/10/30 02:47:32;;;;;;;;;;;;;;;21.27;55.20;101005.41;2084055;28;1005;-54
2021/10/30 02:48:32;;;;;;;;;;;;;;;21.29;54.60;100995.44;2084073;28;973;-54
2021/10/30 02:49:33;;;;;;;;;;;;;;;21.30;54.57;101004.41;2083986;28;986;-54
2021/10/30 02:50:33;;;;;;;;;;;;;;;21.26;55.05;100998.25;2083886;28;823;-54
2021/10/30 02:51:33;;;;;;;;;;;;;;;21.27;54.95;100994.63;2084069;28;1049;-54
2021/10/30 02:52:33;;;;;;;;;;;;;;;21.30;54.82;101001.72;2084083;28;986;-54
2021/10/30 02:53:34;;;;;;;;;;;;;;;21.31;55.54;101006.16;2084046;28;808;-54
2021/10/30 02:54:34;;;;;;;;;;;;;;;21.32;54.50;101005.22;2084036;28;1049;-54
2021/10/30 02:55:34;;;;;;;;;;;;;;;21.27;55.03;101004.50;2083761;28;922;-54
2021/10/30 02:56:35;;;;;;;;;;;;;;;21.24;54.66;100999.22;2083946;28;1269;-54
2021/10/30 02:57:35;;;;;;;;;;;;;;;21.18;55.76;101001.22;2084015;28;811;-54
2021/10/30 02:58:35;;;;;;;;;;;;;;;21.24;55.65;100991.13;2083776;28;878;-54
2021/10/30 02:59:35;;;;;;;;;;;;;;;21.27;55.26;101010.78;2083976;28;1014;-54
2021/10/30 03:00:36;;;;;;;;;;;;;;;21.27;54.87;101004.50;2083962;28;883;-54
2021/10/30 03:01:37;;;;;;;;;;;;;;;21.26;54.62;100997.34;2084026;28;930;-54
2021/10/30 03:02:37;;;;;;;;;;;;;;;21.27;54.81;100996.41;2083932;28;858;-54
2021/10/30 03:03:37;;;;;;;;;;;;;;;21.27;55.40;100994.63;2083706;28;1020;-54
2021/10/30 03:04:37;;;;;;;;;;;;;;;21.25;54.69;100990.19;2083881;28;1162;-54
2021/10/30 03:05:37;;;;;;;;;;;;;;;21.24;55.46;100988.44;2083993;28;838;-54
2021/10/30 03:06:38;;;;;;;;;;;;;;;21.26;55.15;100991.97;2083676;28;1973;-54
2021/10/30 03:07:38;;;;;;;;;;;;;;;21.27;54.97;100991.94;2083989;28;1004;-54
2021/10/30 03:08:38;;;;;;;;;;;;;;;21.27;54.54;100989.25;2083937;28;851;-54
2021/10/30 03:09:38;;;;;;;;;;;;;;;21.27;56.02;100982.94;2083615;28;1152;-54
2021/10/30 03:10:39;;;;;;;;;;;;;;;21.23;55.69;100992.06;2083770;28;1355;-54
2021/10/30 03:11:39;;;;;;;;;;;;;;;21.27;54.72;100991.94;2083967;28;859;-54
2021/10/30 03:12:40;;;;;;;;;;;;;;;21.26;55.63;100989.28;2083921;28;881;-54
2021/10/30 03:13:40;;;;;;;;;;;;;;;21.27;55.18;100991.94;2083888;28;791;-54
2021/10/30 03:14:40;;;;;;;;;;;;;;;21.29;55.44;100991.88;2083815;28;985;-54
2021/10/30 03:15:40;;;;;;;;;;;;;;;21.29;55.47;100986.47;2083869;28;866;-54
2021/10/30 03:16:40;;;;;;;;;;;;;;;21.22;55.14;100983.13;2083872;28;918;-54
2021/10/30 03:17:41;;;;;;;;;;;;;;;21.24;55.84;100989.34;2083514;28;819;-54
2021/10/30 03:18:41;;;;;;;;;;;;;;;21.27;55.09;100978.47;2083820;28;1036;-54
2021/10/30 03:19:42;;;;;;;;;;;;;;;21.25;54.92;100988.41;2083845;28;795;-55
2021/10/30 03:20:42;;;;;;;;;;;;;;;21.25;54.91;100985.72;2083785;28;837;-54
2021/10/30 03:21:42;;;;;;;;;;;;;;;21.26;54.66;100997.34;2083878;28;858;-54
2021/10/30 03:22:42;;;;;;;;;;;;;;;21.25;54.99;100999.19;2083705;28;799;-54
2021/10/30 03:23:42;;;;;;;;;;;;;;;21.25;55.75;100991.09;2083748;28;958;-54
2021/10/30 03:24:43;;;;;;;;;;;;;;;21.26;55.43;100991.97;2083776;28;876;-54
2021/10/30 03:25:43;;;;;;;;;;;;;;;21.28;54.53;100984.72;2083528;28;834;-54
2021/10/30 03:26:43;;;;;;;;;;;;;;;21.22;55.75;100991.19;2083428;28;1898;-54
2021/10/30 03:27:43;;;;;;;;;;;;;;;21.24;55.09;100989.34;2083706;28;913;-54
2021/10/30 03:28:44;;;;;;;;;;;;;;;21.26;54.85;100991.97;2083756;28;1049;-54
2021/10/30 03:29:44;;;;;;;;;;;;;;;21.22;55.24;100993.00;2083800;28;819;-54
2021/10/30 03:30:44;;;;;;;;;;;;;;;21.25;55.71;100999.19;2083716;28;775;-54
2021/10/30 03:31:44;;;;;;;;;;;;;;;21.29;54.64;100991.88;2083785;28;915;-54
2021/10/30 03:32:45;;;;;;;;;;;;;;;21.22;55.31;100995.69;2083691;28;791;-54
2021/10/30 03:33:45;;;;;;;;;;;;;;;;;;2083614;28;859;-54
2021/10/30 03:34:45;;;;;;;;;;;;;;;21.22;55.93;100984.91;2083725;28;858;-54
2021/10/30 03:35:45;;;;;;;;;;;;;;;;;;2083757;28;835;-54
2021/10/30 03:36:45;;;;;;;;;;;;;;;21.18;56.16;100979.66;2083653;28;716;-54
2021/10/30 03:37:45;;;;;;;;;;;;;;;;;;2083652;28;1195;-54
2021/10/30 03:38:46;;;;;;;;;;;;;;;21.22;55.37;100995.69;2083701;28;930;-54
2021/10/30 03:39:46;;;;;;;;;;;;;;;21.20;55.60;100984.13;2083359;28;776;-54
2021/10/30 03:40:46;;;;;;;;;;;;;;;21.24;55.08;100983.94;2083630;28;952;-54
2021/10/30 03:41:46;;;;;;;;;;;;;;;21.22;54.56;100987.59;2083733;28;1308;-54
2021/10/30 03:42:46;;;;;;;;;;;;;;;21.27;55.20;100985.66;2083535;28;764;-54
2021/10/30 03:43:47;;;;;;;;;;;;;;;21.22;55.10;100982.22;2082939;28;981;-54
2021/10/30 03:44:47;;;;;;;;;;;;;;;;;;2083301;28;856;-54
2021/10/30 03:45:47;;;;;;;;;;;;;;;21.20;55.68;100986.81;2083607;28;1041;-54
2021/10/30 03:46:47;;;;;;;;;;;;;;;21.19;56.01;100980.53;2083553;28;1943;-54
2021/10/30 03:47:47;;;;;;;;;;;;;;;21.22;54.87;100985.81;2083659;28;955;-54
2021/10/30 03:48:47;;;;;;;;;;;;;;;21.18;55.65;100985.06;2083611;28;981;-54
2021/10/30 03:49:47;;;;;;;;;;;;;;;21.19;55.58;100985.91;2083526;28;792;-54
2021/10/30 03:50:50;;;;;;;;;;;;;;;;;;2083532;28;788;-54
2021/10/30 03:51:51;;;;;;;;;;;;;;;21.22;55.47;100988.50;2083590;28;827;-54
2021/10/30 03:52:51;;;;;;;;;;;;;;;;;;2083300;28;855;-54
2021/10/30 03:53:51;;;;;;;;;;;;;;;21.18;55.20;100984.16;2083585;28;871;-54
2021/10/30 03:54:53;;;;;;;;;;;;;;;21.22;55.21;100980.44;2083469;28;938;-54
2021/10/30 03:55:53;;;;;;;;;;;;;;;21.23;55.96;100979.50;2083420;28;969;-54
2021/10/30 03:56:53;;;;;;;;;;;;;;;21.23;54.98;100975.91;2083422;28;1066;-54
2021/10/30 03:57:54;;;;;;;;;;;;;;;21.24;55.01;100972.28;2083520;28;800;-54
2021/10/30 03:58:54;;;;;;;;;;;;;;;21.24;55.00;100983.06;2083413;28;994;-54
2021/10/30 03:59:55;;;;;;;;;;;;;;;21.23;55.14;100979.50;2083468;28;851;-54
2021/10/30 04:00:55;;;;;;;;;;;;;;;21.23;55.80;100975.91;2083452;28;981;-54
2021/10/30 04:01:55;;;;;;;;;;;;;;;21.19;55.18;100975.13;2083533;28;799;-54
2021/10/30 04:02:55;;;;;;;;;;;;;;;21.23;54.40;100984.88;2083507;28;990;-54
2021/10/30 04:03:55;;;;;;;;;;;;;;;21.40;54.81;100983.44;2083541;28;875;-54
2021/10/30 04:04:56;;;;;;;;;;;;;;;21.98;53.57;100985.00;2083503;28;981;-54
2021/10/30 04:05:56;;;;;;;;;;;;;;;22.21;52.10;100993.09;2083359;28;855;-54
2021/10/30 04:06:56;;;;;;;;;;;;;;;22.27;52.54;100988.41;2083283;28;1914;-54
2021/10/30 04:07:56;;;;;;;;;;;;;;;22.36;51.77;100988.06;2083455;28;1062;-54
2021/10/30 04:08:56;;;;;;;;;;;;;;;22.38;52.35;100983.47;2083501;28;780;-54
2021/10/30 04:09:57;;;;;;;;;;;;;;;22.44;51.71;100983.28;2083409;28;930;-54
2021/10/30 04:10:57;;;;;;;;;;;;;;;22.56;51.55;100981.91;2083497;28;819;-54
2021/10/30 04:11:57;;;;;;;;;;;;;;;22.58;51.14;100977.31;2083247;28;764;-54
2021/10/30 04:12:57;;;;;;;;;;;;;;;22.59;51.70;100989.88;2083471;28;836;-54
2021/10/30 04:13:57;;;;;;;;;;;;;;;22.60;51.78;100986.25;2083336;28;851;-54
2021/10/30 04:14:57;;;;;;;;;;;;;;;22.70;50.81;100993.97;2083317;28;982;-54
2021/10/30 04:15:58;;;;;;;;;;;;;;;22.72;50.15;100994.81;2083347;28;773;-54
2021/10/30 04:16:58;;;;;;;;;;;;;;;22.68;52.13;100990.47;2083189;28;974;-54
2021/10/30 04:17:58;;;;;;;;;;;;;;;22.70;51.29;100991.28;2083266;28;773;-54
2021/10/30 04:18:58;;;;;;;;;;;;;;;22.74;51.38;100993.78;2083401;28;883;-54
2021/10/30 04:19:58;;;;;;;;;;;;;;;22.72;52.10;100990.25;2083249;28;787;-54
2021/10/30 04:20:59;;;;;;;;;;;;;;;22.80;51.06;100985.44;2074696;28;1215;-54
2021/10/30 04:21:59;;;;;;;;;;;;;;;22.87;50.31;100982.50;2074579;28;1033;-54
2021/10/30 04:23:00;;;;;;;;;;;;;;;22.82;51.28;100984.50;2082963;28;871;-54
2021/10/30 04:24:00;;;;;;;;;;;;;;;22.83;50.87;100979.06;2083348;28;881;-53
2021/10/30 04:25:00;;;;;;;;;;;;;;;22.79;51.15;100980.97;2083315;28;844;-52
2021/10/30 04:26:00;;;;;;;;;;;;;;;22.87;51.42;100985.19;2083342;28;808;-51
2021/10/30 04:27:01;;;;;;;;;;;;;;;22.87;50.77;100979.78;2083225;28;1953;-52
2021/10/30 04:28:02;;;;;;;;;;;;;;;22.85;51.08;100985.28;2083374;28;776;-52
2021/10/30 04:29:02;;;;;;;;;;;;;;;22.89;51.02;100983.31;2083352;28;859;-53
2021/10/30 04:30:02;;;;;;;;;;;;;;;22.92;51.51;100989.47;2083267;28;1053;-54
2021/10/30 04:31:06;;;;;;;;;;;;;;;22.91;50.88;100985.03;2083126;28;991;-54
2021/10/30 04:32:08;;;;;;;;;;;;;;;22.88;51.88;100984.25;2083313;28;855;-54
2021/10/30 04:33:13;;;;;;;;;;;;;;;22.90;51.37;100985.97;2083291;28;870;-54
2021/10/30 04:34:20;;;;;;;;;;;;;;;22.89;51.11;100989.59;2083282;28;855;-54
2021/10/30 04:35:20;;;;;;;;;;;;;;;22.88;52.05;100982.44;2083342;28;886;-54
2021/10/30 04:36:23;;;;;;;;;;;;;;;22.90;51.57;100977.84;2083255;28;776;-54
2021/10/30 04:37:23;;;;;;;;;;;;;;;22.92;51.07;100984.09;2083246;28;1463;-54
2021/10/30 04:38:23;;;;;;;;;;;;;;;22.92;51.43;100981.38;2083044;28;990;-54
2021/10/30 04:39:23;;;;;;;;;;;;;;;22.91;51.13;100982.31;2083111;28;1094;-54
2021/10/30 04:40:24;;;;;;;;;;;;;;;22.95;50.69;100983.97;2083213;28;977;-54
2021/10/30 04:41:24;;;;;;;;;;;;;;;22.92;50.99;100983.19;2083268;28;796;-54
2021/10/30 04:42:24;;;;;;;;;;;;;;;22.95;51.26;100975.84;2083172;28;997;-54
2021/10/30 04:43:25;;;;;;;;;;;;;;;22.92;51.64;100973.28;2083276;28;1317;-53
2021/10/30 04:44:25;;;;;;;;;;;;;;;22.95;50.42;100973.16;2083221;28;1021;-54
2021/10/30 04:45:25;;;;;;;;;;;;;;;22.98;51.31;100969.44;2083265;28;780;-54
2021/10/30 04:46:25;;;;;;;;;;;;;;;22.97;51.03;100967.66;2082912;28;1943;-54
2021/10/30 04:47:26;;;;;;;;;;;;;;;22.97;51.58;100969.47;2083111;28;1190;-54
2021/10/30 04:48:26;;;;;;;;;;;;;;;23.01;50.43;100971.09;2083187;28;1052;-54
2021/10/30 04:49:27;;;;;;;;;;;;;;;23.06;51.00;100963.69;2083079;28;772;-54
2021/10/30 04:50:27;;;;;;;;;;;;;;;23.03;51.09;100959.31;2083110;28;973;-54
2021/10/30 04:51:27;;;;;;;;;;;;;;;23.03;50.56;100953.91;2083210;28;864;-54
2021/10/30 04:52:27;;;;;;;;;;;;;;;23.04;50.63;100954.78;2083101;28;974;-54
2021/10/30 04:53:28;;;;;;;;;;;;;;;22.94;51.39;100960.59;2083197;28;847;-54
2021/10/30 04:54:28;;;;;;;;;;;;;;;23.00;51.00;100954.03;2083027;28;1051;-54
2021/10/30 04:55:28;;;;;;;;;;;;;;;23.01;51.14;100963.00;2083181;28;926;-54
2021/10/30 04:56:28;;;;;;;;;;;;;;;23.05;50.84;100952.03;2083165;28;823;-54
2021/10/30 04:57:28;;;;;;;;;;;;;;;23.05;51.36;100951.13;2082798;28;1035;-54
2021/10/30 04:58:28;;;;;;;;;;;;;;;23.09;51.11;100952.75;2083157;28;1048;-54
2021/10/30 04:59:29;;;;;;;;;;;;;;;23.03;52.03;100948.50;2083179;28;1104;-54
2021/10/30 05:00:29;;;;;;;;;;;;;;;23.06;51.42;100942.06;2082793;28;803;-54
2021/10/30 05:01:29;;;;;;;;;;;;;;;23.10;50.33;100941.91;2083181;28;847;-54
2021/10/30 05:02:29;;;;;;;;;;;;;;;23.06;50.50;100947.47;2083226;28;768;-54
2021/10/30 05:03:29;;;;;;;;;;;;;;;23.06;50.76;100948.38;2083175;28;969;-54
2021/10/30 05:04:30;;;;;;;;;;;;;;;23.05;50.98;100943.91;2083201;28;1336;-54
2021/10/30 05:05:30;;;;;;;;;;;;;;;23.05;51.61;100938.50;2083044;28;756;-54
2021/10/30 05:06:30;;;;;;;;;;;;;;;23.06;50.77;100942.06;2082930;28;1981;-54
2021/10/30 05:07:30;;;;;;;;;;;;;;;23.07;51.16;100943.84;2083156;28;871;-54
2021/10/30 05:08:31;;;;;;;;;;;;;;;23.12;50.33;100938.25;2083117;28;1429;-54
2021/10/30 05:09:31;;;;;;;;;;;;;;;23.05;51.21;100930.41;2082831;28;803;-54
2021/10/30 05:10:31;;;;;;;;;;;;;;;23.07;50.65;100933.94;2083150;28;1185;-54
2021/10/30 05:11:31;;;;;;;;;;;;;;;23.08;51.27;100930.28;2083181;28;799;-54
2021/10/30 05:12:32;;;;;;;;;;;;;;;23.06;51.10;100928.56;2083075;28;1371;-54
2021/10/30 05:13:32;;;;;;;;;;;;;;;23.10;50.83;100928.38;2083177;28;1048;-54
2021/10/30 05:14:32;;;;;;;;;;;;;;;23.10;51.37;100924.78;2082906;28;819;-54
2021/10/30 05:15:32;;;;;;;;;;;;;;;23.08;50.27;100926.69;2083062;28;870;-54
2021/10/30 05:16:32;;;;;;;;;;;;;;;23.09;50.65;100923.03;2083096;28;851;-54
2021/10/30 05:17:33;;;;;;;;;;;;;;;23.07;50.79;100933.03;2082822;28;1414;-54
2021/10/30 05:18:33;;;;;;;;;;;;;;;23.10;51.01;100924.78;2082986;28;1021;-54